sensor_id;sensor_type;location;lat;lon;timestamp;temperature;humidity
35445;DHT22;21562;49.476;6.086;2022-09-09T00:02:21;16.70;99.90
35445;DHT22;21562;49.476;6.086;2022-09-09T00:07:51;16.70;99.90
35445;DHT22;21562;49.476;6.086;2022-09-09T00:15:59;16.70;99.90
35445;DHT22;21562;49.476;6.086;2022-09-09T00:21:18;16.40;99.90
35445;DHT22;21562;49.476;6.086;2022-09-09T00:23:51;16.40;99.90
35445;DHT22;21562;49.476;6.086;2022-09-09T00:26:41;16.50;99.90
35445;DHT22;21562;49.476;6.086;2022-09-09T00:31:33;16.30;99.90
35445;DHT22;21562;49.476;6.086;2022-09-09T00:34:15;16.30;99.90
35445;DHT22;21562;49.476;6.086;2022-09-09T00:36:42;16.50;99.90
35445;DHT22;21562;49.476;6.086;2022-09-09T00:39:40;16.50;99.90
35445;DHT22;21562;49.476;6.086;2022-09-09T00:44:37;16.30;99.90
35445;DHT22;21562;49.476;6.086;2022-09-09T00:55:57;16.00;99.90
35445;DHT22;21562;49.476;6.086;2022-09-09T00:58:25;16.10;99.90
35445;DHT22;21562;49.476;6.086;2022-09-09T01:00:55;16.30;99.90
35445;DHT22;21562;49.476;6.086;2022-09-09T01:03:55;16.50;99.90
35445;DHT22;21562;49.476;6.086;2022-09-09T01:06:31;16.50;99.90
35445;DHT22;21562;49.476;6.086;2022-09-09T01:17:11;16.50;99.90
35445;DHT22;21562;49.476;6.086;2022-09-09T01:19:45;16.30;99.90
35445;DHT22;21562;49.476;6.086;2022-09-09T01:28:03;16.90;99.90
35445;DHT22;21562;49.476;6.086;2022-09-09T01:30:31;16.90;99.90
35445;DHT22;21562;49.476;6.086;2022-09-09T01:32:58;16.80;99.90
35445;DHT22;21562;49.476;6.086;2022-09-09T01:37:57;17.00;99.90
35445;DHT22;21562;49.476;6.086;2022-09-09T01:40:25;16.90;99.90
35445;DHT22;21562;49.476;6.086;2022-09-09T01:42:52;16.70;99.90
35445;DHT22;21562;49.476;6.086;2022-09-09T01:45:18;16.90;99.90
35445;DHT22;21562;49.476;6.086;2022-09-09T01:47:45;16.90;99.90
35445;DHT22;21562;49.476;6.086;2022-09-09T01:50:12;16.70;99.90
35445;DHT22;21562;49.476;6.086;2022-09-09T01:52:39;16.90;99.90
35445;DHT22;21562;49.476;6.086;2022-09-09T01:55:06;17.00;99.90
35445;DHT22;21562;49.476;6.086;2022-09-09T02:03:00;16.80;99.90
35445;DHT22;21562;49.476;6.086;2022-09-09T02:08:29;16.60;99.90
35445;DHT22;21562;49.476;6.086;2022-09-09T02:11:05;16.60;99.90
35445;DHT22;21562;49.476;6.086;2022-09-09T02:13:32;16.50;99.90
35445;DHT22;21562;49.476;6.086;2022-09-09T02:16:26;16.50;99.90
35445;DHT22;21562;49.476;6.086;2022-09-09T02:19:01;16.60;99.90
35445;DHT22;21562;49.476;6.086;2022-09-09T02:21:31;16.70;99.90
35445;DHT22;21562;49.476;6.086;2022-09-09T02:24:03;16.70;99.90
35445;DHT22;21562;49.476;6.086;2022-09-09T02:26:32;16.80;99.90
35445;DHT22;21562;49.476;6.086;2022-09-09T02:29:02;16.80;99.90
35445;DHT22;21562;49.476;6.086;2022-09-09T02:31:28;17.00;99.90
35445;DHT22;21562;49.476;6.086;2022-09-09T02:34:00;16.90;99.90
35445;DHT22;21562;49.476;6.086;2022-09-09T02:36:29;17.00;99.90
35445;DHT22;21562;49.476;6.086;2022-09-09T02:38:59;16.60;99.90
35445;DHT22;21562;49.476;6.086;2022-09-09T02:41:37;16.50;99.90
35445;DHT22;21562;49.476;6.086;2022-09-09T02:44:15;16.30;99.90
35445;DHT22;21562;49.476;6.086;2022-09-09T02:49:39;16.70;99.90
35445;DHT22;21562;49.476;6.086;2022-09-09T02:52:08;16.80;99.90
35445;DHT22;21562;49.476;6.086;2022-09-09T02:54:37;16.90;99.90
35445;DHT22;21562;49.476;6.086;2022-09-09T02:59:38;17.10;99.90
35445;DHT22;21562;49.476;6.086;2022-09-09T03:02:04;17.30;99.90
35445;DHT22;21562;49.476;6.086;2022-09-09T03:04:29;17.40;99.90
35445;DHT22;21562;49.476;6.086;2022-09-09T03:06:57;17.50;99.90
35445;DHT22;21562;49.476;6.086;2022-09-09T03:09:23;17.60;99.90
35445;DHT22;21562;49.476;6.086;2022-09-09T03:11:48;17.40;99.90
35445;DHT22;21562;49.476;6.086;2022-09-09T03:14:15;17.50;99.90
35445;DHT22;21562;49.476;6.086;2022-09-09T03:16:41;17.30;99.90
35445;DHT22;21562;49.476;6.086;2022-09-09T03:19:08;17.10;99.90
35445;DHT22;21562;49.476;6.086;2022-09-09T03:21:34;16.90;99.90
35445;DHT22;21562;49.476;6.086;2022-09-09T03:23:59;16.70;99.90
35445;DHT22;21562;49.476;6.086;2022-09-09T03:26:25;16.60;99.90
35445;DHT22;21562;49.476;6.086;2022-09-09T03:28:51;16.50;99.90
35445;DHT22;21562;49.476;6.086;2022-09-09T03:31:17;16.30;99.90
35445;DHT22;21562;49.476;6.086;2022-09-09T03:33:44;16.10;99.90
35445;DHT22;21562;49.476;6.086;2022-09-09T03:36:10;16.10;99.90
35445;DHT22;21562;49.476;6.086;2022-09-09T03:38:36;15.90;99.90
35445;DHT22;21562;49.476;6.086;2022-09-09T03:41:02;15.70;99.90
35445;DHT22;21562;49.476;6.086;2022-09-09T03:43:31;15.70;99.90
35445;DHT22;21562;49.476;6.086;2022-09-09T03:45:56;15.70;99.90
35445;DHT22;21562;49.476;6.086;2022-09-09T03:48:22;15.60;99.90
35445;DHT22;21562;49.476;6.086;2022-09-09T03:50:51;15.80;99.90
35445;DHT22;21562;49.476;6.086;2022-09-09T03:53:18;15.70;99.90
35445;DHT22;21562;49.476;6.086;2022-09-09T03:55:49;15.70;99.90
35445;DHT22;21562;49.476;6.086;2022-09-09T03:58:16;15.80;99.90
35445;DHT22;21562;49.476;6.086;2022-09-09T04:00:52;15.70;99.90
35445;DHT22;21562;49.476;6.086;2022-09-09T04:03:18;15.70;99.90
35445;DHT22;21562;49.476;6.086;2022-09-09T04:05:44;15.70;99.90
35445;DHT22;21562;49.476;6.086;2022-09-09T04:08:09;15.80;99.90
35445;DHT22;21562;49.476;6.086;2022-09-09T04:10:36;15.70;99.90
35445;DHT22;21562;49.476;6.086;2022-09-09T04:13:03;15.60;99.90
35445;DHT22;21562;49.476;6.086;2022-09-09T04:15:30;15.60;99.90
35445;DHT22;21562;49.476;6.086;2022-09-09T04:17:55;15.50;99.90
35445;DHT22;21562;49.476;6.086;2022-09-09T04:20:21;15.50;99.90
35445;DHT22;21562;49.476;6.086;2022-09-09T04:22:47;15.60;99.90
35445;DHT22;21562;49.476;6.086;2022-09-09T04:25:14;15.50;99.90
35445;DHT22;21562;49.476;6.086;2022-09-09T04:27:39;15.60;99.90
35445;DHT22;21562;49.476;6.086;2022-09-09T04:30:06;15.70;99.90
35445;DHT22;21562;49.476;6.086;2022-09-09T04:32:33;15.60;99.90
35445;DHT22;21562;49.476;6.086;2022-09-09T04:34:59;15.50;99.90
35445;DHT22;21562;49.476;6.086;2022-09-09T04:37:24;15.50;99.90
35445;DHT22;21562;49.476;6.086;2022-09-09T04:39:50;15.60;99.90
35445;DHT22;21562;49.476;6.086;2022-09-09T04:42:16;15.50;99.90
35445;DHT22;21562;49.476;6.086;2022-09-09T04:44:43;15.50;99.90
35445;DHT22;21562;49.476;6.086;2022-09-09T04:47:09;15.50;99.90
35445;DHT22;21562;49.476;6.086;2022-09-09T04:49:35;15.40;99.90
35445;DHT22;21562;49.476;6.086;2022-09-09T04:52:02;15.30;99.90
35445;DHT22;21562;49.476;6.086;2022-09-09T04:54:29;15.40;99.90
35445;DHT22;21562;49.476;6.086;2022-09-09T04:56:55;15.40;99.90
35445;DHT22;21562;49.476;6.086;2022-09-09T04:59:21;15.30;99.90
35445;DHT22;21562;49.476;6.086;2022-09-09T05:01:47;15.20;99.90
35445;DHT22;21562;49.476;6.086;2022-09-09T05:04:13;15.30;99.90
35445;DHT22;21562;49.476;6.086;2022-09-09T05:06:40;15.30;99.90
35445;DHT22;21562;49.476;6.086;2022-09-09T05:09:08;15.30;99.90
35445;DHT22;21562;49.476;6.086;2022-09-09T05:11:34;15.30;99.90
35445;DHT22;21562;49.476;6.086;2022-09-09T05:14:02;15.20;99.90
35445;DHT22;21562;49.476;6.086;2022-09-09T05:16:28;15.30;99.90
35445;DHT22;21562;49.476;6.086;2022-09-09T05:18:55;15.30;99.90
35445;DHT22;21562;49.476;6.086;2022-09-09T05:21:22;15.40;99.90
35445;DHT22;21562;49.476;6.086;2022-09-09T05:23:48;15.30;99.90
35445;DHT22;21562;49.476;6.086;2022-09-09T05:26:19;15.30;99.90
35445;DHT22;21562;49.476;6.086;2022-09-09T05:28:45;15.40;99.90
35445;DHT22;21562;49.476;6.086;2022-09-09T05:31:12;15.40;99.90
35445;DHT22;21562;49.476;6.086;2022-09-09T05:33:39;15.50;99.90
35445;DHT22;21562;49.476;6.086;2022-09-09T05:36:17;15.50;99.90
35445;DHT22;21562;49.476;6.086;2022-09-09T05:38:44;15.50;99.90
35445;DHT22;21562;49.476;6.086;2022-09-09T05:41:10;15.40;99.90
35445;DHT22;21562;49.476;6.086;2022-09-09T05:43:37;15.60;99.90
35445;DHT22;21562;49.476;6.086;2022-09-09T05:46:11;15.50;99.90
35445;DHT22;21562;49.476;6.086;2022-09-09T05:48:39;15.60;99.90
35445;DHT22;21562;49.476;6.086;2022-09-09T05:51:08;15.60;99.90
35445;DHT22;21562;49.476;6.086;2022-09-09T05:53:35;15.70;99.90
35445;DHT22;21562;49.476;6.086;2022-09-09T05:56:12;15.70;99.90
35445;DHT22;21562;49.476;6.086;2022-09-09T05:58:39;15.70;99.90
35445;DHT22;21562;49.476;6.086;2022-09-09T06:01:06;15.80;99.90
35445;DHT22;21562;49.476;6.086;2022-09-09T06:03:34;15.80;99.90
35445;DHT22;21562;49.476;6.086;2022-09-09T06:06:03;15.70;99.90
35445;DHT22;21562;49.476;6.086;2022-09-09T06:08:31;15.90;99.90
35445;DHT22;21562;49.476;6.086;2022-09-09T06:11:12;16.10;99.90
35445;DHT22;21562;49.476;6.086;2022-09-09T06:13:38;16.10;99.90
35445;DHT22;21562;49.476;6.086;2022-09-09T06:16:06;16.00;99.90
35445;DHT22;21562;49.476;6.086;2022-09-09T06:18:33;16.00;99.90
35445;DHT22;21562;49.476;6.086;2022-09-09T06:21:02;15.90;99.90
35445;DHT22;21562;49.476;6.086;2022-09-09T06:23:35;16.00;99.90
35445;DHT22;21562;49.476;6.086;2022-09-09T06:26:05;15.90;99.90
35445;DHT22;21562;49.476;6.086;2022-09-09T06:28:32;16.00;99.90
35445;DHT22;21562;49.476;6.086;2022-09-09T06:30:59;16.00;99.90
35445;DHT22;21562;49.476;6.086;2022-09-09T06:33:25;16.00;99.90
35445;DHT22;21562;49.476;6.086;2022-09-09T06:35:52;16.20;99.90
35445;DHT22;21562;49.476;6.086;2022-09-09T06:38:18;16.10;99.90
35445;DHT22;21562;49.476;6.086;2022-09-09T06:40:51;15.90;99.90
35445;DHT22;21562;49.476;6.086;2022-09-09T06:43:18;16.00;99.90
35445;DHT22;21562;49.476;6.086;2022-09-09T06:45:56;16.10;99.90
35445;DHT22;21562;49.476;6.086;2022-09-09T06:48:22;16.20;99.90
35445;DHT22;21562;49.476;6.086;2022-09-09T06:50:47;16.10;99.90
35445;DHT22;21562;49.476;6.086;2022-09-09T06:53:18;16.10;99.90
35445;DHT22;21562;49.476;6.086;2022-09-09T06:55:45;16.20;99.90
35445;DHT22;21562;49.476;6.086;2022-09-09T06:58:10;16.00;99.90
35445;DHT22;21562;49.476;6.086;2022-09-09T07:00:36;16.00;99.90
35445;DHT22;21562;49.476;6.086;2022-09-09T07:03:05;15.90;99.90
35445;DHT22;21562;49.476;6.086;2022-09-09T07:05:31;16.00;99.90
35445;DHT22;21562;49.476;6.086;2022-09-09T07:07:57;16.00;99.90
35445;DHT22;21562;49.476;6.086;2022-09-09T07:10:24;16.20;99.90
35445;DHT22;21562;49.476;6.086;2022-09-09T07:12:53;16.10;99.90
35445;DHT22;21562;49.476;6.086;2022-09-09T07:15:19;16.10;99.90
35445;DHT22;21562;49.476;6.086;2022-09-09T07:17:45;16.20;99.90
35445;DHT22;21562;49.476;6.086;2022-09-09T07:20:11;16.30;99.90
35445;DHT22;21562;49.476;6.086;2022-09-09T07:22:37;16.40;99.90
35445;DHT22;21562;49.476;6.086;2022-09-09T07:25:03;16.50;99.90
35445;DHT22;21562;49.476;6.086;2022-09-09T07:27:29;16.80;99.90
35445;DHT22;21562;49.476;6.086;2022-09-09T07:29:55;17.00;99.90
35445;DHT22;21562;49.476;6.086;2022-09-09T07:32:21;16.80;99.90
35445;DHT22;21562;49.476;6.086;2022-09-09T07:34:47;16.60;99.90
35445;DHT22;21562;49.476;6.086;2022-09-09T07:37:13;16.60;99.90
35445;DHT22;21562;49.476;6.086;2022-09-09T07:39:39;16.60;99.90
35445;DHT22;21562;49.476;6.086;2022-09-09T07:42:05;16.50;99.90
35445;DHT22;21562;49.476;6.086;2022-09-09T07:44:31;16.70;99.90
35445;DHT22;21562;49.476;6.086;2022-09-09T07:47:01;16.80;99.90
35445;DHT22;21562;49.476;6.086;2022-09-09T07:49:27;16.80;99.90
35445;DHT22;21562;49.476;6.086;2022-09-09T07:51:52;16.60;99.90
35445;DHT22;21562;49.476;6.086;2022-09-09T07:54:19;16.50;99.90
35445;DHT22;21562;49.476;6.086;2022-09-09T07:56:50;16.60;99.90
35445;DHT22;21562;49.476;6.086;2022-09-09T07:59:16;16.60;99.90
35445;DHT22;21562;49.476;6.086;2022-09-09T08:01:46;16.30;99.90
35445;DHT22;21562;49.476;6.086;2022-09-09T08:04:23;16.40;99.90
35445;DHT22;21562;49.476;6.086;2022-09-09T08:06:54;16.40;99.90
35445;DHT22;21562;49.476;6.086;2022-09-09T08:09:20;16.60;99.90
35445;DHT22;21562;49.476;6.086;2022-09-09T08:11:46;16.70;99.90
35445;DHT22;21562;49.476;6.086;2022-09-09T08:14:12;16.70;99.90
35445;DHT22;21562;49.476;6.086;2022-09-09T08:16:44;16.90;99.90
35445;DHT22;21562;49.476;6.086;2022-09-09T08:19:11;17.10;99.90
35445;DHT22;21562;49.476;6.086;2022-09-09T08:21:38;17.10;99.90
35445;DHT22;21562;49.476;6.086;2022-09-09T08:24:05;17.30;99.90
35445;DHT22;21562;49.476;6.086;2022-09-09T08:26:34;17.30;99.90
35445;DHT22;21562;49.476;6.086;2022-09-09T08:29:01;17.30;99.90
35445;DHT22;21562;49.476;6.086;2022-09-09T08:31:33;17.30;99.90
35445;DHT22;21562;49.476;6.086;2022-09-09T08:34:00;17.20;99.90
35445;DHT22;21562;49.476;6.086;2022-09-09T08:36:27;17.20;99.90
35445;DHT22;21562;49.476;6.086;2022-09-09T08:38:55;16.90;99.90
35445;DHT22;21562;49.476;6.086;2022-09-09T08:55:21;17.50;99.90
35445;DHT22;21562;49.476;6.086;2022-09-09T08:57:52;17.50;99.90
35445;DHT22;21562;49.476;6.086;2022-09-09T09:00:19;17.40;99.90
35445;DHT22;21562;49.476;6.086;2022-09-09T09:03:05;17.40;99.90
35445;DHT22;21562;49.476;6.086;2022-09-09T09:05:47;17.60;99.90
35445;DHT22;21562;49.476;6.086;2022-09-09T09:10:56;17.90;99.90
35445;DHT22;21562;49.476;6.086;2022-09-09T09:13:52;18.10;99.90
35445;DHT22;21562;49.476;6.086;2022-09-09T09:16:38;18.10;99.90
35445;DHT22;21562;49.476;6.086;2022-09-09T09:19:10;18.00;99.90
35445;DHT22;21562;49.476;6.086;2022-09-09T09:21:42;17.90;99.90
35445;DHT22;21562;49.476;6.086;2022-09-09T09:24:31;17.90;99.90
35445;DHT22;21562;49.476;6.086;2022-09-09T09:27:11;17.70;99.90
35445;DHT22;21562;49.476;6.086;2022-09-09T09:29:38;17.80;99.90
35445;DHT22;21562;49.476;6.086;2022-09-09T09:32:07;17.80;99.90
35445;DHT22;21562;49.476;6.086;2022-09-09T09:34:35;18.00;99.90
35445;DHT22;21562;49.476;6.086;2022-09-09T09:37:01;18.10;99.90
35445;DHT22;21562;49.476;6.086;2022-09-09T09:39:29;17.80;99.90
35445;DHT22;21562;49.476;6.086;2022-09-09T09:41:55;17.90;99.90
35445;DHT22;21562;49.476;6.086;2022-09-09T09:46:51;18.50;99.90
35445;DHT22;21562;49.476;6.086;2022-09-09T09:49:17;18.70;99.90
35445;DHT22;21562;49.476;6.086;2022-09-09T09:51:43;18.70;99.90
35445;DHT22;21562;49.476;6.086;2022-09-09T09:56:39;18.60;99.90
35445;DHT22;21562;49.476;6.086;2022-09-09T09:59:05;18.70;99.90
35445;DHT22;21562;49.476;6.086;2022-09-09T10:01:38;18.70;99.90
35445;DHT22;21562;49.476;6.086;2022-09-09T10:04:16;18.50;99.90
35445;DHT22;21562;49.476;6.086;2022-09-09T10:06:44;18.50;99.90
35445;DHT22;21562;49.476;6.086;2022-09-09T10:09:26;18.30;99.90
35445;DHT22;21562;49.476;6.086;2022-09-09T10:15:00;18.50;99.90
35445;DHT22;21562;49.476;6.086;2022-09-09T10:22:52;18.80;99.90
35445;DHT22;21562;49.476;6.086;2022-09-09T10:25:38;18.50;99.90
35445;DHT22;21562;49.476;6.086;2022-09-09T10:28:26;18.70;99.90
35445;DHT22;21562;49.476;6.086;2022-09-09T10:36:28;18.30;99.90
35445;DHT22;21562;49.476;6.086;2022-09-09T10:38:59;18.20;99.90
35445;DHT22;21562;49.476;6.086;2022-09-09T10:41:48;18.40;99.90
35445;DHT22;21562;49.476;6.086;2022-09-09T10:44:33;18.70;99.90
35445;DHT22;21562;49.476;6.086;2022-09-09T10:55:02;18.50;99.90
35445;DHT22;21562;49.476;6.086;2022-09-09T10:57:53;18.40;99.90
35445;DHT22;21562;49.476;6.086;2022-09-09T11:03:00;17.20;99.90
35445;DHT22;21562;49.476;6.086;2022-09-09T11:05:29;17.20;99.90
35445;DHT22;21562;49.476;6.086;2022-09-09T11:08:05;17.40;99.90
35445;DHT22;21562;49.476;6.086;2022-09-09T11:13:34;18.20;99.90
35445;DHT22;21562;49.476;6.086;2022-09-09T11:16:27;18.50;99.90
35445;DHT22;21562;49.476;6.086;2022-09-09T11:18:55;18.60;99.90
35445;DHT22;21562;49.476;6.086;2022-09-09T11:21:27;18.70;99.90
35445;DHT22;21562;49.476;6.086;2022-09-09T11:23:57;19.00;99.90
35445;DHT22;21562;49.476;6.086;2022-09-09T11:26:49;19.20;99.90
35445;DHT22;21562;49.476;6.086;2022-09-09T11:29:40;18.90;99.90
35445;DHT22;21562;49.476;6.086;2022-09-09T11:32:40;19.10;99.90
35445;DHT22;21562;49.476;6.086;2022-09-09T11:35:40;18.60;99.90
35445;DHT22;21562;49.476;6.086;2022-09-09T11:38:16;18.60;99.90
35445;DHT22;21562;49.476;6.086;2022-09-09T11:40:45;18.60;99.90
35445;DHT22;21562;49.476;6.086;2022-09-09T11:43:16;18.80;99.90
35445;DHT22;21562;49.476;6.086;2022-09-09T11:45:51;18.80;99.90
35445;DHT22;21562;49.476;6.086;2022-09-09T11:48:33;18.70;99.90
35445;DHT22;21562;49.476;6.086;2022-09-09T11:51:03;18.90;99.90
35445;DHT22;21562;49.476;6.086;2022-09-09T11:53:31;19.10;99.90
35445;DHT22;21562;49.476;6.086;2022-09-09T11:56:24;19.40;99.90
35445;DHT22;21562;49.476;6.086;2022-09-09T11:59:02;19.50;99.90
35445;DHT22;21562;49.476;6.086;2022-09-09T12:01:34;19.20;99.90
35445;DHT22;21562;49.476;6.086;2022-09-09T12:04:17;19.20;99.90
35445;DHT22;21562;49.476;6.086;2022-09-09T12:06:54;19.00;99.90
35445;DHT22;21562;49.476;6.086;2022-09-09T12:17:18;18.90;99.90
35445;DHT22;21562;49.476;6.086;2022-09-09T12:19:45;18.90;99.90
35445;DHT22;21562;49.476;6.086;2022-09-09T12:22:27;18.90;99.90
35445;DHT22;21562;49.476;6.086;2022-09-09T12:28:56;19.10;99.90
35445;DHT22;21562;49.476;6.086;2022-09-09T12:31:43;19.40;99.90
35445;DHT22;21562;49.476;6.086;2022-09-09T12:34:15;19.60;99.90
35445;DHT22;21562;49.476;6.086;2022-09-09T12:36:43;19.90;99.90
35445;DHT22;21562;49.476;6.086;2022-09-09T12:39:24;20.00;99.90
35445;DHT22;21562;49.476;6.086;2022-09-09T12:41:55;19.80;99.90
35445;DHT22;21562;49.476;6.086;2022-09-09T12:44:23;19.70;99.90
35445;DHT22;21562;49.476;6.086;2022-09-09T12:46:49;19.70;99.90
35445;DHT22;21562;49.476;6.086;2022-09-09T12:49:31;20.10;99.90
35445;DHT22;21562;49.476;6.086;2022-09-09T12:52:02;20.00;99.90
35445;DHT22;21562;49.476;6.086;2022-09-09T12:54:30;19.70;99.90
35445;DHT22;21562;49.476;6.086;2022-09-09T12:56:57;19.70;99.90
35445;DHT22;21562;49.476;6.086;2022-09-09T12:59:35;20.00;99.90
35445;DHT22;21562;49.476;6.086;2022-09-09T13:02:00;20.30;99.90
35445;DHT22;21562;49.476;6.086;2022-09-09T13:04:27;20.00;99.90
35445;DHT22;21562;49.476;6.086;2022-09-09T13:06:52;19.90;99.90
35445;DHT22;21562;49.476;6.086;2022-09-09T13:09:19;20.20;99.90
35445;DHT22;21562;49.476;6.086;2022-09-09T13:11:49;20.20;99.90
35445;DHT22;21562;49.476;6.086;2022-09-09T13:14:29;20.30;99.90
35445;DHT22;21562;49.476;6.086;2022-09-09T13:17:00;20.80;99.90
35445;DHT22;21562;49.476;6.086;2022-09-09T13:19:26;20.60;99.90
35445;DHT22;21562;49.476;6.086;2022-09-09T13:21:54;20.20;99.90
35445;DHT22;21562;49.476;6.086;2022-09-09T13:24:32;19.40;99.90
35445;DHT22;21562;49.476;6.086;2022-09-09T13:27:00;18.30;99.90
35445;DHT22;21562;49.476;6.086;2022-09-09T13:29:31;17.30;99.90
35445;DHT22;21562;49.476;6.086;2022-09-09T13:32:15;16.80;99.90
35445;DHT22;21562;49.476;6.086;2022-09-09T13:34:51;17.00;99.90
35445;DHT22;21562;49.476;6.086;2022-09-09T13:37:23;16.80;99.90
35445;DHT22;21562;49.476;6.086;2022-09-09T13:39:52;16.60;99.90
35445;DHT22;21562;49.476;6.086;2022-09-09T13:42:25;16.60;99.90
35445;DHT22;21562;49.476;6.086;2022-09-09T13:44:51;16.70;99.90
35445;DHT22;21562;49.476;6.086;2022-09-09T13:47:26;16.70;99.90
35445;DHT22;21562;49.476;6.086;2022-09-09T13:49:52;16.60;99.90
35445;DHT22;21562;49.476;6.086;2022-09-09T13:52:18;16.90;99.90
35445;DHT22;21562;49.476;6.086;2022-09-09T13:54:51;16.90;99.90
35445;DHT22;21562;49.476;6.086;2022-09-09T13:57:22;16.90;99.90
35445;DHT22;21562;49.476;6.086;2022-09-09T13:59:50;17.10;99.90
35445;DHT22;21562;49.476;6.086;2022-09-09T14:02:16;17.10;99.90
35445;DHT22;21562;49.476;6.086;2022-09-09T14:04:42;17.10;99.90
35445;DHT22;21562;49.476;6.086;2022-09-09T14:07:12;17.20;99.90
35445;DHT22;21562;49.476;6.086;2022-09-09T14:09:38;17.60;99.90
35445;DHT22;21562;49.476;6.086;2022-09-09T14:12:05;18.10;99.90
35445;DHT22;21562;49.476;6.086;2022-09-09T14:14:30;18.10;99.90
35445;DHT22;21562;49.476;6.086;2022-09-09T14:16:56;18.20;99.90
35445;DHT22;21562;49.476;6.086;2022-09-09T14:19:21;18.40;99.90
35445;DHT22;21562;49.476;6.086;2022-09-09T14:21:47;18.70;99.90
35445;DHT22;21562;49.476;6.086;2022-09-09T14:24:14;18.70;99.90
35445;DHT22;21562;49.476;6.086;2022-09-09T14:26:39;18.80;99.90
35445;DHT22;21562;49.476;6.086;2022-09-09T14:29:06;18.70;99.90
35445;DHT22;21562;49.476;6.086;2022-09-09T14:31:31;19.00;99.90
35445;DHT22;21562;49.476;6.086;2022-09-09T14:33:58;19.10;99.90
35445;DHT22;21562;49.476;6.086;2022-09-09T14:36:24;19.40;99.90
35445;DHT22;21562;49.476;6.086;2022-09-09T14:38:50;19.70;99.90
35445;DHT22;21562;49.476;6.086;2022-09-09T14:41:18;19.60;99.90
35445;DHT22;21562;49.476;6.086;2022-09-09T14:43:45;19.70;99.90
35445;DHT22;21562;49.476;6.086;2022-09-09T14:46:15;19.70;99.90
35445;DHT22;21562;49.476;6.086;2022-09-09T14:48:41;19.70;99.90
35445;DHT22;21562;49.476;6.086;2022-09-09T14:51:09;19.50;99.90
35445;DHT22;21562;49.476;6.086;2022-09-09T14:53:35;19.20;99.90
35445;DHT22;21562;49.476;6.086;2022-09-09T14:56:13;18.90;99.90
35445;DHT22;21562;49.476;6.086;2022-09-09T14:58:39;18.90;99.90
35445;DHT22;21562;49.476;6.086;2022-09-09T15:01:12;19.00;99.90
35445;DHT22;21562;49.476;6.086;2022-09-09T15:03:40;19.40;99.90
35445;DHT22;21562;49.476;6.086;2022-09-09T15:06:11;19.60;99.90
35445;DHT22;21562;49.476;6.086;2022-09-09T15:08:38;19.80;99.90
35445;DHT22;21562;49.476;6.086;2022-09-09T15:11:05;19.70;99.90
35445;DHT22;21562;49.476;6.086;2022-09-09T15:13:33;19.80;99.90
35445;DHT22;21562;49.476;6.086;2022-09-09T15:16:11;19.90;99.90
35445;DHT22;21562;49.476;6.086;2022-09-09T15:18:37;20.00;99.90
35445;DHT22;21562;49.476;6.086;2022-09-09T15:21:14;19.70;99.90
35445;DHT22;21562;49.476;6.086;2022-09-09T15:23:41;19.40;99.90
35445;DHT22;21562;49.476;6.086;2022-09-09T15:26:07;19.60;99.90
35445;DHT22;21562;49.476;6.086;2022-09-09T15:28:34;19.60;99.90
35445;DHT22;21562;49.476;6.086;2022-09-09T15:31:15;19.70;99.90
35445;DHT22;21562;49.476;6.086;2022-09-09T15:33:47;19.50;99.90
35445;DHT22;21562;49.476;6.086;2022-09-09T15:36:14;19.40;99.90
35445;DHT22;21562;49.476;6.086;2022-09-09T15:38:40;19.30;99.90
35445;DHT22;21562;49.476;6.086;2022-09-09T15:41:06;19.40;99.90
35445;DHT22;21562;49.476;6.086;2022-09-09T15:43:31;19.50;99.90
35445;DHT22;21562;49.476;6.086;2022-09-09T15:46:05;19.40;99.90
35445;DHT22;21562;49.476;6.086;2022-09-09T15:48:34;19.60;99.90
35445;DHT22;21562;49.476;6.086;2022-09-09T15:51:04;19.50;99.90
35445;DHT22;21562;49.476;6.086;2022-09-09T15:53:30;19.50;99.90
35445;DHT22;21562;49.476;6.086;2022-09-09T15:55:58;19.30;99.90
35445;DHT22;21562;49.476;6.086;2022-09-09T15:58:24;19.30;99.90
35445;DHT22;21562;49.476;6.086;2022-09-09T16:00:49;19.00;99.90
35445;DHT22;21562;49.476;6.086;2022-09-09T16:03:15;19.10;99.90
35445;DHT22;21562;49.476;6.086;2022-09-09T16:05:40;19.10;99.90
35445;DHT22;21562;49.476;6.086;2022-09-09T16:08:06;19.10;99.90
35445;DHT22;21562;49.476;6.086;2022-09-09T16:10:32;19.10;99.90
35445;DHT22;21562;49.476;6.086;2022-09-09T16:12:58;18.70;99.90
35445;DHT22;21562;49.476;6.086;2022-09-09T16:15:24;18.10;99.90
35445;DHT22;21562;49.476;6.086;2022-09-09T16:17:53;17.60;99.90
35445;DHT22;21562;49.476;6.086;2022-09-09T16:20:19;17.20;99.90
35445;DHT22;21562;49.476;6.086;2022-09-09T16:22:45;16.90;99.90
35445;DHT22;21562;49.476;6.086;2022-09-09T16:25:11;16.80;99.90
35445;DHT22;21562;49.476;6.086;2022-09-09T16:27:36;16.60;99.90
35445;DHT22;21562;49.476;6.086;2022-09-09T16:30:02;16.60;99.90
35445;DHT22;21562;49.476;6.086;2022-09-09T16:32:28;16.70;99.90
35445;DHT22;21562;49.476;6.086;2022-09-09T16:34:54;16.60;99.90
35445;DHT22;21562;49.476;6.086;2022-09-09T16:37:19;16.50;99.90
35445;DHT22;21562;49.476;6.086;2022-09-09T16:39:45;16.40;99.90
35445;DHT22;21562;49.476;6.086;2022-09-09T16:42:11;16.40;99.90
35445;DHT22;21562;49.476;6.086;2022-09-09T16:44:36;16.40;99.90
35445;DHT22;21562;49.476;6.086;2022-09-09T16:47:02;16.40;99.90
35445;DHT22;21562;49.476;6.086;2022-09-09T16:49:28;16.60;99.90
35445;DHT22;21562;49.476;6.086;2022-09-09T16:51:56;16.70;99.90
35445;DHT22;21562;49.476;6.086;2022-09-09T16:54:22;16.90;99.90
35445;DHT22;21562;49.476;6.086;2022-09-09T16:56:50;16.90;99.90
35445;DHT22;21562;49.476;6.086;2022-09-09T16:59:18;17.10;99.90
35445;DHT22;21562;49.476;6.086;2022-09-09T17:01:46;17.20;99.90
35445;DHT22;21562;49.476;6.086;2022-09-09T17:04:14;17.50;99.90
35445;DHT22;21562;49.476;6.086;2022-09-09T17:06:41;17.60;99.90
35445;DHT22;21562;49.476;6.086;2022-09-09T17:09:09;17.70;99.90
35445;DHT22;21562;49.476;6.086;2022-09-09T17:11:39;17.30;99.90
35445;DHT22;21562;49.476;6.086;2022-09-09T17:14:06;17.60;99.90
35445;DHT22;21562;49.476;6.086;2022-09-09T17:16:34;17.70;99.90
35445;DHT22;21562;49.476;6.086;2022-09-09T17:19:00;17.90;99.90
35445;DHT22;21562;49.476;6.086;2022-09-09T17:21:27;17.60;99.90
35445;DHT22;21562;49.476;6.086;2022-09-09T17:23:54;17.60;99.90
35445;DHT22;21562;49.476;6.086;2022-09-09T17:26:23;17.30;99.90
35445;DHT22;21562;49.476;6.086;2022-09-09T17:28:48;17.30;99.90
35445;DHT22;21562;49.476;6.086;2022-09-09T17:31:16;17.20;99.90
35445;DHT22;21562;49.476;6.086;2022-09-09T17:33:44;17.20;99.90
35445;DHT22;21562;49.476;6.086;2022-09-09T17:36:12;17.40;99.90
35445;DHT22;21562;49.476;6.086;2022-09-09T17:38:39;17.50;99.90
35445;DHT22;21562;49.476;6.086;2022-09-09T17:41:08;17.50;99.90
35445;DHT22;21562;49.476;6.086;2022-09-09T17:43:35;17.40;99.90